Time;durP1;ratioP1;P1;durP2;ratioP2;P2;SDS_P1;SDS_P2;PMS_P1;PMS_P2;Temp;Humidity;BMP_temperature;BMP_pressure;BME280_temperature;BME280_humidity;BME280_pressure;Samples;Min_cycle;Max_cycle;Signal;HPM_P1;HPM_P2
2023/11/13 00:01:46;;;;;;;14.85;7.00;;;3.20;99.90;;;;;;4981542;28;20062;-81
2023/11/13 00:04:12;;;;;;;13.48;5.60;;;3.20;99.90;;;;;;4984001;28;20130;-82
2023/11/13 00:06:37;;;;;;;12.10;6.65;;;3.20;99.90;;;;;;4995585;28;20529;-82
2023/11/13 00:09:04;;;;;;;13.57;6.68;;;3.10;99.90;;;;;;4985726;28;20051;-81
2023/11/13 00:11:29;;;;;;;14.00;6.65;;;3.20;99.90;;;;;;4980310;28;20106;-81
2023/11/13 00:13:55;;;;;;;14.90;6.80;;;3.20;99.90;;;;;;4984488;28;20117;-82
2023/11/13 00:16:20;;;;;;;10.93;5.50;;;3.20;99.90;;;;;;4985871;28;20034;-82
2023/11/13 00:18:46;;;;;;;13.35;6.70;;;3.20;99.90;;;;;;4983146;28;20067;-82
2023/11/13 00:21:15;;;;;;;11.77;6.28;;;3.10;99.90;;;;;;4982603;28;20033;-82
2023/11/13 00:23:44;;;;;;;12.02;6.60;;;3.10;99.90;;;;;;4986864;28;20475;-81
2023/11/13 00:26:10;;;;;;;14.00;6.50;;;3.10;99.90;;;;;;4985911;28;20054;-81
2023/11/13 00:28:36;;;;;;;13.13;7.40;;;3.00;99.90;;;;;;4980207;28;20610;-81
2023/11/13 00:31:02;;;;;;;11.25;5.70;;;3.00;99.90;;;;;;4987736;28;20113;-81
2023/11/13 00:33:28;;;;;;;13.68;6.60;;;2.90;99.90;;;;;;4985190;28;20026;-82
2023/11/13 00:35:53;;;;;;;16.52;6.22;;;2.90;99.90;;;;;;4978921;28;20121;-81
2023/11/13 00:38:19;;;;;;;12.20;6.38;;;2.80;99.90;;;;;;4984966;28;20065;-81
2023/11/13 00:40:44;;;;;;;12.18;5.35;;;2.80;99.90;;;;;;4977350;28;20126;-81
2023/11/13 00:43:10;;;;;;;11.77;5.30;;;2.70;99.90;;;;;;4986788;28;20089;-81
2023/11/13 00:45:35;;;;;;;13.20;5.65;;;2.60;99.90;;;;;;4983903;28;20053;-81
2023/11/13 00:48:01;;;;;;;14.15;6.28;;;2.60;99.90;;;;;;4993264;28;20063;-81
2023/11/13 00:50:27;;;;;;;13.40;6.00;;;2.60;99.90;;;;;;4983062;28;20443;-81
2023/11/13 00:52:53;;;;;;;14.15;6.43;;;2.70;99.90;;;;;;4979039;28;20487;-81
2023/11/13 00:55:18;;;;;;;13.38;6.38;;;2.60;99.90;;;;;;4980934;28;20030;-81
2023/11/13 00:57:44;;;;;;;12.32;6.60;;;2.60;99.90;;;;;;4987319;28;20167;-81
2023/11/13 01:00:11;;;;;;;13.48;6.70;;;2.50;99.90;;;;;;4980075;28;20164;-81
2023/11/13 01:02:36;;;;;;;12.30;6.47;;;2.50;99.90;;;;;;4980033;28;20038;-81
2023/11/13 01:05:03;;;;;;;10.57;5.43;;;2.40;99.90;;;;;;4988427;28;20030;-82
2023/11/13 01:07:28;;;;;;;11.55;5.88;;;2.40;99.90;;;;;;4984868;28;20475;-81
2023/11/13 01:09:55;;;;;;;12.32;6.53;;;2.50;99.90;;;;;;4985778;28;20408;-82
2023/11/13 01:12:22;;;;;;;12.30;6.55;;;2.60;99.90;;;;;;4984333;28;20161;-81
2023/11/13 01:14:48;;;;;;;12.88;6.25;;;2.60;99.90;;;;;;4978272;28;20464;-81
2023/11/13 01:17:14;;;;;;;12.88;6.13;;;2.60;99.90;;;;;;4985308;28;20026;-81
2023/11/13 01:19:40;;;;;;;17.67;6.28;;;2.60;99.90;;;;;;4980572;28;20108;-82
2023/11/13 01:22:05;;;;;;;13.60;6.35;;;2.60;99.90;;;;;;4980647;28;20113;-81
2023/11/13 01:24:31;;;;;;;13.20;6.22;;;2.60;99.90;;;;;;4982809;28;20030;-82
2023/11/13 01:26:57;;;;;;;12.73;6.50;;;2.60;99.90;;;;;;4980572;28;20038;-82
2023/11/13 01:29:22;;;;;;;11.52;6.43;;;2.50;99.90;;;;;;4978808;28;20038;-81
2023/11/13 01:31:47;;;;;;;13.82;6.35;;;2.60;99.90;;;;;;4987246;28;20124;-81
2023/11/13 01:34:13;;;;;;;12.05;6.25;;;2.60;99.90;;;;;;4987297;28;20037;-81
2023/11/13 01:36:39;;;;;;;15.48;7.68;;;2.60;99.90;;;;;;4978543;28;20037;-81
2023/11/13 01:39:05;;;;;;;15.07;6.53;;;2.60;99.90;;;;;;4983526;28;20092;-81
2023/11/13 01:41:37;;;;;;;13.20;6.53;;;2.60;99.90;;;;;;4978459;28;20411;-81
2023/11/13 01:44:03;;;;;;;15.98;7.80;;;2.70;99.90;;;;;;4983124;28;20080;-81
2023/11/13 01:46:30;;;;;;;14.00;7.78;;;2.70;99.90;;;;;;4975676;28;20035;-81
2023/11/13 01:48:57;;;;;;;12.52;6.90;;;2.70;99.90;;;;;;4982537;28;20349;-81
2023/11/13 01:51:24;;;;;;;16.67;8.05;;;2.80;99.90;;;;;;4975913;28;20411;-81
2023/11/13 01:53:50;;;;;;;15.00;7.35;;;2.80;99.90;;;;;;4980274;28;20057;-81
2023/11/13 01:56:17;;;;;;;17.55;7.65;;;2.80;99.90;;;;;;4982500;28;20034;-81
2023/11/13 01:58:43;;;;;;;16.83;7.25;;;2.80;99.90;;;;;;4970649;28;20027;-81
2023/11/13 02:01:09;;;;;;;13.13;6.82;;;2.80;99.90;;;;;;4982497;28;20068;-81
2023/11/13 02:03:35;;;;;;;14.23;7.57;;;2.90;99.90;;;;;;4980712;28;20043;-81
2023/11/13 02:06:03;;;;;;;17.58;7.70;;;2.90;99.90;;;;;;4989350;28;20503;-81
2023/11/13 02:08:29;;;;;;;13.57;6.88;;;3.00;99.90;;;;;;4983106;28;20057;-80
2023/11/13 02:10:55;;;;;;;17.10;8.90;;;2.90;99.90;;;;;;4983583;28;20051;-81
2023/11/13 02:13:21;;;;;;;18.30;8.52;;;2.90;99.90;;;;;;4980591;28;20400;-81
2023/11/13 02:15:47;;;;;;;20.35;9.65;;;3.00;99.90;;;;;;4983903;28;20030;-82
2023/11/13 02:18:13;;;;;;;18.35;11.38;;;3.00;99.90;;;;;;4975815;28;20038;-81
2023/11/13 02:20:38;;;;;;;21.45;10.75;;;2.90;99.90;;;;;;4979420;28;20474;-81
2023/11/13 02:23:05;;;;;;;27.33;12.73;;;2.80;99.90;;;;;;4977820;28;20043;-82
2023/11/13 02:25:36;;;;;;;29.27;13.93;;;2.90;99.90;;;;;;4979842;28;20027;-81
2023/11/13 02:28:02;;;;;;;26.63;12.15;;;2.80;99.90;;;;;;4975261;28;20050;-81
2023/11/13 02:30:27;;;;;;;23.02;12.15;;;2.80;99.90;;;;;;4976861;28;20453;-81
2023/11/13 02:32:53;;;;;;;26.38;11.88;;;2.80;99.90;;;;;;4978944;28;20533;-82
2023/11/13 02:35:18;;;;;;;26.40;13.73;;;2.80;99.90;;;;;;4987257;28;20030;-82
2023/11/13 02:37:44;;;;;;;22.27;11.10;;;2.80;99.90;;;;;;4985102;28;20033;-81
2023/11/13 02:40:10;;;;;;;16.85;9.98;;;2.80;99.90;;;;;;4989068;28;20030;-82
2023/11/13 02:42:37;;;;;;;20.98;10.60;;;2.80;99.90;;;;;;4985933;28;20050;-81
2023/11/13 02:45:02;;;;;;;19.10;10.15;;;2.80;99.90;;;;;;4983085;28;20562;-81
2023/11/13 02:47:28;;;;;;;18.88;10.23;;;2.80;99.90;;;;;;4978755;28;20023;-81
2023/11/13 02:49:53;;;;;;;19.05;10.25;;;2.70;99.90;;;;;;5000306;28;20031;-81
2023/11/13 02:52:19;;;;;;;17.58;9.45;;;2.70;99.90;;;;;;4981886;28;20035;-81
2023/11/13 02:54:45;;;;;;;12.98;7.68;;;2.70;99.90;;;;;;4986265;28;20057;-81
2023/11/13 02:57:10;;;;;;;15.25;7.88;;;2.70;99.90;;;;;;4984003;28;20027;-81
2023/11/13 02:59:36;;;;;;;15.43;8.05;;;2.80;99.90;;;;;;4980499;28;20475;-81
2023/11/13 03:02:01;;;;;;;15.20;7.85;;;2.70;99.90;;;;;;4978523;28;20034;-81
2023/11/13 03:04:27;;;;;;;15.70;7.53;;;2.70;99.90;;;;;;4982357;28;20512;-82
2023/11/13 03:06:52;;;;;;;17.77;8.13;;;2.70;99.90;;;;;;4983448;28;20026;-81
2023/11/13 03:09:18;;;;;;;16.25;8.02;;;2.70;99.90;;;;;;4981112;28;20035;-82
2023/11/13 03:11:45;;;;;;;14.43;7.55;;;2.80;99.90;;;;;;4983515;28;20443;-80
2023/11/13 03:14:10;;;;;;;13.82;7.80;;;2.80;99.90;;;;;;4982399;28;20038;-81
2023/11/13 03:16:36;;;;;;;14.52;7.38;;;2.70;99.90;;;;;;4983246;28;20501;-81
2023/11/13 03:19:01;;;;;;;16.60;7.55;;;2.70;99.90;;;;;;4984322;28;20037;-81
2023/11/13 03:21:26;;;;;;;14.23;6.63;;;2.70;99.90;;;;;;4984469;28;20064;-81
2023/11/13 03:23:52;;;;;;;15.63;6.90;;;2.70;99.90;;;;;;4983812;28;20134;-81
2023/11/13 03:26:17;;;;;;;14.38;7.20;;;2.60;99.90;;;;;;4984160;28;20073;-81
2023/11/13 03:28:43;;;;;;;12.50;6.18;;;2.60;99.90;;;;;;4983354;28;20096;-81
2023/11/13 03:31:09;;;;;;;12.70;6.68;;;2.60;99.90;;;;;;4983510;28;20034;-81
2023/11/13 03:33:35;;;;;;;14.48;7.03;;;2.60;99.90;;;;;;4983015;28;20110;-81
2023/11/13 03:36:00;;;;;;;12.50;5.32;;;2.60;99.90;;;;;;4983815;28;20065;-82
2023/11/13 03:38:26;;;;;;;13.55;6.60;;;2.60;99.90;;;;;;4986476;28;21983;-81
2023/11/13 03:40:51;;;;;;;11.88;6.32;;;2.60;99.90;;;;;;4991813;28;20483;-82
2023/11/13 03:43:17;;;;;;;11.55;6.50;;;2.60;99.90;;;;;;4985871;28;20085;-81
2023/11/13 03:45:42;;;;;;;14.02;6.65;;;2.60;99.90;;;;;;4987316;28;20520;-81
2023/11/13 03:48:08;;;;;;;9.43;5.38;;;2.60;99.90;;;;;;4991677;28;20107;-81
2023/11/13 03:50:34;;;;;;;12.98;5.88;;;2.60;99.90;;;;;;4982622;28;20027;-81
2023/11/13 03:52:59;;;;;;;9.30;5.53;;;2.60;99.90;;;;;;4985294;28;20030;-81
2023/11/13 03:55:26;;;;;;;10.63;5.38;;;2.70;99.90;;;;;;4985962;28;20038;-81
2023/11/13 03:57:52;;;;;;;15.65;6.10;;;2.70;99.90;;;;;;4986378;28;20034;-81
2023/11/13 04:00:19;;;;;;;9.27;4.43;;;2.70;99.90;;;;;;4983224;28;20027;-81
2023/11/13 04:02:48;;;;;;;9.30;4.47;;;2.80;99.90;;;;;;4982664;28;20092;-81
2023/11/13 04:05:14;;;;;;;7.60;4.07;;;2.80;99.90;;;;;;4998264;28;20376;-81
2023/11/13 04:07:39;;;;;;;9.35;4.78;;;2.80;99.90;;;;;;4987062;28;20041;-81
2023/11/13 04:10:05;;;;;;;9.23;4.38;;;2.90;99.90;;;;;;4986163;28;20355;-82
2023/11/13 04:12:31;;;;;;;10.25;4.35;;;2.90;99.90;;;;;;4990961;28;20073;-81
2023/11/13 04:14:57;;;;;;;8.50;4.40;;;3.00;99.90;;;;;;4979440;28;20383;-81
2023/11/13 04:17:23;;;;;;;9.88;4.28;;;3.00;99.90;;;;;;4984816;28;20129;-81
2023/11/13 04:19:48;;;;;;;11.10;4.75;;;3.00;99.90;;;;;;4985584;28;20120;-82
2023/11/13 04:22:14;;;;;;;8.30;3.88;;;3.00;99.90;;;;;;4980059;28;20046;-82
2023/11/13 04:24:39;;;;;;;7.45;4.28;;;3.10;99.90;;;;;;4984258;28;20030;-81
2023/11/13 04:27:05;;;;;;;9.05;3.45;;;3.10;99.90;;;;;;4985082;28;20495;-82
2023/11/13 04:29:31;;;;;;;7.55;3.90;;;3.10;99.90;;;;;;4980763;28;20073;-81
2023/11/13 04:31:56;;;;;;;8.10;4.30;;;3.10;99.90;;;;;;4985092;28;20037;-81
2023/11/13 04:34:22;;;;;;;6.45;3.47;;;3.10;99.90;;;;;;4985523;28;20031;-81
2023/11/13 04:36:47;;;;;;;6.38;3.15;;;3.10;99.90;;;;;;4983327;28;20125;-81
2023/11/13 04:39:15;;;;;;;6.03;3.28;;;3.00;99.90;;;;;;4991663;28;20038;-81
2023/11/13 04:41:41;;;;;;;9.35;4.05;;;3.10;99.90;;;;;;4988095;28;20046;-81
2023/11/13 04:44:06;;;;;;;7.22;3.13;;;3.10;99.90;;;;;;4983190;28;20035;-82
2023/11/13 04:46:35;;;;;;;7.43;3.05;;;3.10;99.90;;;;;;4987517;28;20106;-82
2023/11/13 04:49:01;;;;;;;6.00;2.85;;;3.20;99.90;;;;;;4991496;28;20045;-82
2023/11/13 04:51:26;;;;;;;6.63;3.28;;;3.20;99.90;;;;;;4987771;28;20030;-81
2023/11/13 04:53:52;;;;;;;6.88;3.45;;;3.20;99.90;;;;;;4983389;28;20037;-82
2023/11/13 04:56:17;;;;;;;6.63;3.53;;;3.20;99.90;;;;;;4988776;28;20030;-82
2023/11/13 04:58:43;;;;;;;10.30;3.92;;;3.10;99.90;;;;;;4980865;28;20046;-81
2023/11/13 05:01:09;;;;;;;6.82;3.20;;;3.10;99.90;;;;;;4987696;28;20034;-81
2023/11/13 05:03:34;;;;;;;7.15;3.90;;;3.00;99.90;;;;;;4989376;28;20577;-82
2023/11/13 05:06:00;;;;;;;6.80;3.42;;;3.00;99.90;;;;;;4984601;28;20176;-83
2023/11/13 05:08:26;;;;;;;8.10;3.72;;;2.90;99.90;;;;;;4987088;28;20053;-82
2023/11/13 05:10:51;;;;;;;8.10;3.42;;;2.90;99.90;;;;;;4984020;28;20070;-81
2023/11/13 05:13:17;;;;;;;5.47;2.90;;;2.80;99.90;;;;;;4974660;28;20043;-81
2023/11/13 05:15:43;;;;;;;4.80;2.78;;;2.80;99.90;;;;;;4980412;28;20043;-81
2023/11/13 05:18:08;;;;;;;6.25;3.15;;;2.80;99.90;;;;;;4981995;28;20097;-81
2023/11/13 05:20:39;;;;;;;6.57;3.17;;;2.80;99.90;;;;;;4983043;28;20033;-81
2023/11/13 05:23:06;;;;;;;7.45;3.28;;;2.90;99.90;;;;;;4982843;28;20434;-81
2023/11/13 05:25:32;;;;;;;5.88;2.42;;;2.90;99.90;;;;;;4978603;28;20062;-81
2023/11/13 05:27:58;;;;;;;7.20;3.05;;;2.90;99.90;;;;;;4978491;28;21955;-77
2023/11/13 05:30:24;;;;;;;5.75;3.10;;;3.00;99.90;;;;;;4984863;28;20031;-75
2023/11/13 05:32:50;;;;;;;4.97;2.97;;;3.00;99.90;;;;;;4977936;28;20030;-75
2023/11/13 05:35:15;;;;;;;6.35;3.08;;;3.00;99.90;;;;;;4983813;28;20042;-75
2023/11/13 05:37:41;;;;;;;6.75;3.45;;;2.90;99.90;;;;;;4980262;28;20472;-75
2023/11/13 05:40:07;;;;;;;6.53;3.05;;;2.90;99.90;;;;;;4987355;28;20379;-75
2023/11/13 05:42:35;;;;;;;7.10;3.80;;;2.90;99.90;;;;;;4996500;28;20039;-75
2023/11/13 05:45:00;;;;;;;5.80;3.03;;;2.80;99.90;;;;;;4985770;28;20034;-75
2023/11/13 05:47:27;;;;;;;6.00;2.88;;;2.80;99.90;;;;;;4981818;28;20386;-75
2023/11/13 05:49:53;;;;;;;8.77;3.97;;;2.80;99.90;;;;;;4988397;28;20030;-75
2023/11/13 05:52:19;;;;;;;6.40;3.30;;;2.80;99.90;;;;;;4987215;28;20027;-75
2023/11/13 05:54:45;;;;;;;6.28;2.72;;;2.70;99.90;;;;;;4981332;28;20026;-75
2023/11/13 05:57:10;;;;;;;6.43;3.10;;;2.70;99.90;;;;;;4983887;28;20041;-75
2023/11/13 05:59:36;;;;;;;6.32;3.47;;;2.70;99.90;;;;;;4983239;28;20471;-74
2023/11/13 06:02:02;;;;;;;7.15;3.28;;;2.70;99.90;;;;;;4980259;28;20034;-75
2023/11/13 06:04:27;;;;;;;6.10;2.90;;;2.60;99.90;;;;;;4985995;28;20107;-75
2023/11/13 06:06:53;;;;;;;7.05;3.33;;;2.60;99.90;;;;;;4982790;28;20089;-75
2023/11/13 06:09:18;;;;;;;5.95;3.38;;;2.60;99.90;;;;;;4987879;28;20018;-75
2023/11/13 06:11:47;;;;;;;6.72;3.33;;;2.50;99.90;;;;;;4988634;28;23031;-75
2023/11/13 06:14:13;;;;;;;6.25;3.15;;;2.50;99.90;;;;;;4988787;28;20036;-75
2023/11/13 06:16:38;;;;;;;5.75;3.05;;;2.50;99.90;;;;;;4986881;28;20026;-74
2023/11/13 06:19:07;;;;;;;7.32;3.35;;;2.50;99.90;;;;;;4984663;28;20026;-74
2023/11/13 06:21:33;;;;;;;6.78;3.10;;;2.40;99.90;;;;;;4984330;28;20357;-74
2023/11/13 06:23:59;;;;;;;5.05;2.83;;;2.50;99.90;;;;;;4983867;28;20095;-75
2023/11/13 06:26:24;;;;;;;5.78;2.97;;;2.60;99.90;;;;;;4983224;28;20674;-75
2023/11/13 06:28:50;;;;;;;8.35;3.40;;;2.50;99.90;;;;;;4983989;28;20177;-74
2023/11/13 06:31:21;;;;;;;5.72;3.08;;;2.40;99.90;;;;;;4979188;28;20394;-74
2023/11/13 06:33:47;;;;;;;7.18;3.50;;;2.40;99.90;;;;;;4980216;28;20426;-74
2023/11/13 06:36:13;;;;;;;6.55;3.00;;;2.40;99.90;;;;;;4980752;28;20034;-75
2023/11/13 06:38:39;;;;;;;7.30;2.97;;;2.30;99.90;;;;;;4981466;28;20189;-73
2023/11/13 06:41:05;;;;;;;7.22;3.50;;;2.30;99.90;;;;;;4981590;28;20121;-73
2023/11/13 06:43:31;;;;;;;5.53;2.92;;;2.20;99.90;;;;;;4986135;28;20470;-73
2023/11/13 06:45:58;;;;;;;5.32;2.67;;;2.20;99.90;;;;;;4982191;28;20068;-73
2023/11/13 06:48:24;;;;;;;5.90;3.50;;;2.20;99.90;;;;;;4990920;28;20414;-73
2023/11/13 06:50:50;;;;;;;5.25;2.88;;;2.10;99.90;;;;;;4989192;28;20069;-73
2023/11/13 06:53:15;;;;;;;7.22;3.83;;;2.10;99.90;;;;;;4984370;28;20034;-73
2023/11/13 06:55:41;;;;;;;6.00;3.13;;;2.10;99.90;;;;;;4987469;28;20085;-73
2023/11/13 06:58:10;;;;;;;4.28;2.53;;;2.10;99.90;;;;;;4975694;28;20031;-73
2023/11/13 07:00:37;;;;;;;5.70;2.92;;;2.10;99.90;;;;;;4981177;28;20126;-73
2023/11/13 07:03:03;;;;;;;5.10;2.50;;;2.10;99.90;;;;;;4975156;28;20383;-71
2023/11/13 07:05:30;;;;;;;5.43;2.60;;;2.10;99.90;;;;;;4979497;28;20037;-73
2023/11/13 07:07:56;;;;;;;6.47;3.22;;;2.10;99.90;;;;;;4981653;28;20121;-73
2023/11/13 07:10:21;;;;;;;6.43;2.85;;;2.10;99.90;;;;;;4979588;28;20117;-73
2023/11/13 07:12:50;;;;;;;6.47;2.92;;;2.10;99.90;;;;;;4982236;28;20392;-73
2023/11/13 07:15:15;;;;;;;6.78;2.90;;;2.10;99.90;;;;;;4976005;28;20059;-73
2023/11/13 07:17:41;;;;;;;6.78;3.00;;;2.20;99.90;;;;;;4975514;28;20171;-73
2023/11/13 07:20:09;;;;;;;5.07;2.80;;;2.10;99.90;;;;;;4984811;28;20515;-73
2023/11/13 07:22:35;;;;;;;6.20;3.30;;;2.10;99.90;;;;;;4984056;28;20065;-73
2023/11/13 07:25:01;;;;;;;6.25;3.08;;;2.10;99.90;;;;;;4988335;28;20026;-73
2023/11/13 07:27:27;;;;;;;5.60;2.80;;;2.20;99.90;;;;;;4977679;28;20353;-73
2023/11/13 07:29:56;;;;;;;6.57;3.10;;;2.20;99.90;;;;;;4979775;28;20046;-73
2023/11/13 07:32:24;;;;;;;5.35;2.50;;;2.20;99.90;;;;;;4980965;28;20098;-73
2023/11/13 07:34:53;;;;;;;6.28;2.97;;;2.20;99.90;;;;;;4988054;28;20039;-73
2023/11/13 07:37:23;;;;;;;5.07;2.78;;;2.20;99.90;;;;;;4984339;28;20027;-73
2023/11/13 07:39:51;;;;;;;5.68;2.83;;;2.30;99.90;;;;;;4988274;28;20027;-73
2023/11/13 07:42:17;;;;;;;6.38;3.40;;;2.40;99.90;;;;;;4979225;28;20027;-73
2023/11/13 07:44:49;;;;;;;5.93;2.70;;;2.40;99.90;;;;;;4979321;28;20026;-73
2023/11/13 07:47:18;;;;;;;5.72;2.80;;;2.40;99.90;;;;;;4988452;28;20199;-73
2023/11/13 07:49:44;;;;;;;5.60;2.30;;;2.50;99.90;;;;;;4984601;28;20093;-73
2023/11/13 07:52:15;;;;;;;5.50;3.30;;;2.50;99.90;;;;;;4985294;28;20030;-73
2023/11/13 07:54:40;;;;;;;5.60;2.75;;;2.60;99.90;;;;;;4988967;28;20030;-73
2023/11/13 07:57:08;;;;;;;5.57;2.53;;;2.60;99.90;;;;;;4984803;28;20037;-73
2023/11/13 07:59:35;;;;;;;5.50;2.83;;;2.60;99.90;;;;;;4978848;28;20027;-73
2023/11/13 08:02:00;;;;;;;5.13;2.58;;;2.60;99.90;;;;;;4981906;28;20022;-73
2023/11/13 08:04:26;;;;;;;5.47;2.47;;;2.70;99.90;;;;;;4991084;28;20476;-73
2023/11/13 08:06:51;;;;;;;6.30;2.90;;;2.70;99.90;;;;;;4992181;28;20022;-73
2023/11/13 08:09:18;;;;;;;4.95;2.53;;;2.70;99.90;;;;;;4984380;28;20542;-73
2023/11/13 08:11:45;;;;;;;5.00;2.67;;;2.80;99.90;;;;;;4991879;28;20022;-73
2023/11/13 08:14:11;;;;;;;5.65;2.83;;;2.90;99.90;;;;;;4986040;28;20499;-73
2023/11/13 08:16:36;;;;;;;5.72;2.80;;;3.10;99.90;;;;;;4987761;28;20034;-73
2023/11/13 08:19:02;;;;;;;5.57;2.30;;;3.10;99.90;;;;;;4990775;28;20062;-73
2023/11/13 08:21:30;;;;;;;5.32;2.83;;;3.10;99.90;;;;;;5000587;28;20377;-73
2023/11/13 08:23:56;;;;;;;6.35;2.90;;;3.10;99.90;;;;;;4983612;28;20080;-73
2023/11/13 08:26:28;;;;;;;4.45;2.50;;;3.10;99.90;;;;;;4986318;28;20055;-73
2023/11/13 08:28:54;;;;;;;5.45;2.47;;;3.10;99.90;;;;;;4987895;28;20025;-73
2023/11/13 08:31:25;;;;;;;5.05;2.60;;;3.30;99.90;;;;;;4990752;28;20039;-73
2023/11/13 08:33:52;;;;;;;5.20;2.60;;;3.40;99.90;;;;;;4999991;28;20034;-73
2023/11/13 08:36:21;;;;;;;4.65;2.35;;;3.40;99.90;;;;;;4988813;28;20027;-73
2023/11/13 08:38:47;;;;;;;7.30;2.95;;;3.40;99.90;;;;;;4985360;28;20030;-73
2023/11/13 08:41:13;;;;;;;5.78;2.90;;;3.40;99.90;;;;;;4989277;28;20061;-73
2023/11/13 08:43:39;;;;;;;5.25;2.58;;;3.50;99.90;;;;;;4990516;28;20026;-73
2023/11/13 08:46:04;;;;;;;5.00;2.75;;;3.50;99.80;;;;;;4985441;28;20053;-72
2023/11/13 08:48:30;;;;;;;5.35;2.28;;;3.50;99.70;;;;;;4981488;28;20426;-72
2023/11/13 08:50:59;;;;;;;5.32;2.83;;;3.50;99.30;;;;;;4985534;28;20751;-72
2023/11/13 08:53:27;;;;;;;4.47;2.15;;;3.60;99.50;;;;;;4984066;28;20030;-72
2023/11/13 08:55:53;;;;;;;4.25;2.20;;;3.60;99.40;;;;;;4989301;28;20034;-73
2023/11/13 08:58:18;;;;;;;5.80;2.72;;;3.70;99.30;;;;;;4982865;28;20375;-73
2023/11/13 09:00:44;;;;;;;4.50;2.38;;;3.80;99.30;;;;;;4983672;28;20048;-72
2023/11/13 09:03:11;;;;;;;5.82;2.83;;;3.90;99.30;;;;;;4985628;28;20070;-73
2023/11/13 09:05:37;;;;;;;4.70;2.58;;;3.90;99.20;;;;;;4983023;28;20031;-73
2023/11/13 09:08:04;;;;;;;4.97;2.22;;;3.90;99.10;;;;;;4989438;28;20034;-73
2023/11/13 09:10:30;;;;;;;5.22;2.70;;;4.00;99.20;;;;;;4983812;28;20160;-73
2023/11/13 09:13:00;;;;;;;4.80;2.35;;;4.10;99.10;;;;;;4987274;28;20086;-73
2023/11/13 09:15:28;;;;;;;4.57;2.40;;;4.10;99.00;;;;;;4977763;28;20038;-73
2023/11/13 09:17:54;;;;;;;5.00;2.67;;;4.20;99.00;;;;;;4988359;28;20034;-74
2023/11/13 09:20:24;;;;;;;4.32;2.13;;;4.20;99.00;;;;;;4985194;28;20036;-72
2023/11/13 09:22:51;;;;;;;4.78;2.75;;;4.30;99.00;;;;;;4983624;28;20042;-74
2023/11/13 09:25:17;;;;;;;4.75;2.40;;;4.30;98.80;;;;;;4987605;28;20481;-73
2023/11/13 09:27:44;;;;;;;3.78;1.92;;;4.40;98.90;;;;;;4978965;28;20086;-72
2023/11/13 09:30:11;;;;;;;4.43;2.30;;;4.60;98.90;;;;;;4981806;28;20018;-72
2023/11/13 09:32:39;;;;;;;3.38;2.05;;;4.60;98.90;;;;;;4991190;28;20024;-73
2023/11/13 09:35:06;;;;;;;3.90;2.35;;;4.70;98.70;;;;;;4992482;28;20030;-73
2023/11/13 09:37:32;;;;;;;5.30;2.90;;;4.80;98.60;;;;;;4991076;28;20030;-73
2023/11/13 09:39:58;;;;;;;4.57;2.25;;;4.80;98.40;;;;;;4992089;28;20394;-74
2023/11/13 09:42:27;;;;;;;3.22;1.73;;;5.00;98.50;;;;;;4983769;28;20102;-73
2023/11/13 09:44:56;;;;;;;4.50;2.55;;;5.10;98.10;;;;;;4984919;28;20036;-73
2023/11/13 09:47:27;;;;;;;4.97;2.35;;;5.30;98.40;;;;;;4991046;28;20026;-73
2023/11/13 09:50:03;;;;;;;5.13;2.30;;;5.30;97.90;;;;;;4988133;28;20026;-73
2023/11/13 09:52:30;;;;;;;4.75;2.75;;;5.50;98.00;;;;;;4985168;28;20475;-73
2023/11/13 09:54:56;;;;;;;4.65;2.50;;;5.80;98.00;;;;;;4980886;28;20034;-73
2023/11/13 09:57:22;;;;;;;5.72;2.97;;;6.00;97.40;;;;;;4995409;28;20026;-73
2023/11/13 09:59:51;;;;;;;4.97;2.63;;;6.00;96.40;;;;;;4979888;28;20309;-73
2023/11/13 10:02:19;;;;;;;4.32;2.50;;;6.00;96.10;;;;;;4978286;28;20037;-73
2023/11/13 10:04:45;;;;;;;6.10;2.78;;;6.00;96.10;;;;;;4983346;28;20141;-73
2023/11/13 10:07:11;;;;;;;6.47;3.15;;;6.20;96.50;;;;;;4988123;28;20511;-73
2023/11/13 10:09:37;;;;;;;5.95;3.30;;;6.20;95.60;;;;;;4978213;28;20038;-73
2023/11/13 10:12:07;;;;;;;6.43;3.10;;;6.20;95.90;;;;;;4988409;28;20153;-75
2023/11/13 10:14:33;;;;;;;6.28;3.17;;;6.30;96.00;;;;;;4994122;28;20090;-74
2023/11/13 10:17:02;;;;;;;6.10;2.80;;;6.40;95.80;;;;;;4985178;28;20030;-74
2023/11/13 10:19:28;;;;;;;4.90;2.80;;;6.60;95.80;;;;;;4985234;28;20027;-74
2023/11/13 10:21:57;;;;;;;6.10;2.97;;;6.70;95.40;;;;;;4983365;28;20030;-74
2023/11/13 10:24:24;;;;;;;5.50;3.17;;;6.80;95.30;;;;;;4984978;28;20038;-74
2023/11/13 10:26:51;;;;;;;5.75;2.95;;;6.90;94.70;;;;;;4990292;28;20049;-74
2023/11/13 10:29:26;;;;;;;5.90;3.20;;;7.10;94.70;;;;;;4978322;28;20463;-74
2023/11/13 10:31:53;;;;;;;6.88;3.45;;;7.10;94.50;;;;;;4985490;28;20118;-74
2023/11/13 10:34:21;;;;;;;7.40;3.38;;;7.00;94.40;;;;;;4980899;28;20022;-74
2023/11/13 10:37:10;;;;;;;5.32;3.10;;;7.00;94.30;;;;;;4981970;28;20080;-73
2023/11/13 10:39:37;;;;;;;6.05;2.72;;;7.10;94.70;;;;;;4985303;28;20065;-73
2023/11/13 10:42:05;;;;;;;6.80;3.65;;;7.30;94.30;;;;;;4977265;28;20467;-74
2023/11/13 10:44:36;;;;;;;6.22;3.40;;;7.50;93.90;;;;;;4986431;28;20379;-73
2023/11/13 10:47:27;;;;;;;7.63;3.35;;;7.70;92.70;;;;;;4982612;28;20036;-74
2023/11/13 10:49:54;;;;;;;5.65;2.72;;;7.90;91.80;;;;;;4993419;28;20448;-73
2023/11/13 10:52:21;;;;;;;5.90;3.13;;;7.80;91.60;;;;;;4978704;28;20460;-74
2023/11/13 10:54:48;;;;;;;7.30;3.30;;;7.90;92.10;;;;;;4987540;28;20033;-73
2023/11/13 10:57:15;;;;;;;6.20;3.20;;;7.60;92.00;;;;;;4991269;28;20089;-73
2023/11/13 10:59:41;;;;;;;6.05;3.13;;;7.40;91.70;;;;;;4976433;28;20034;-74
2023/11/13 11:02:19;;;;;;;5.05;2.63;;;7.30;92.40;;;;;;4977915;28;20045;-73
2023/11/13 11:04:47;;;;;;;6.47;3.38;;;7.30;92.90;;;;;;4978955;28;20035;-73
2023/11/13 11:07:14;;;;;;;8.07;2.75;;;7.30;93.20;;;;;;4978459;28;20045;-73
2023/11/13 11:09:41;;;;;;;4.90;2.53;;;7.30;93.10;;;;;;4985476;28;20030;-73
2023/11/13 11:12:08;;;;;;;5.28;2.85;;;7.40;93.30;;;;;;4979515;28;20026;-74
2023/11/13 11:15:14;;;;;;;5.07;2.58;;;7.30;92.80;;;;;;4983969;28;20046;-73
2023/11/13 11:17:45;;;;;;;6.93;2.83;;;7.50;93.00;;;;;;4975692;28;20078;-74
2023/11/13 11:20:20;;;;;;;6.70;3.28;;;7.50;92.50;;;;;;4988062;28;20145;-73
2023/11/13 11:22:48;;;;;;;5.07;2.85;;;7.50;92.40;;;;;;4990696;28;20480;-73
2023/11/13 11:25:44;;;;;;;5.85;3.20;;;7.50;92.60;;;;;;4981784;28;20356;-73
2023/11/13 11:28:36;;;;;;;4.28;2.30;;;7.50;92.10;;;;;;4980019;28;20046;-73
2023/11/13 11:31:04;;;;;;;6.38;2.90;;;7.50;92.30;;;;;;4991346;28;20030;-73
2023/11/13 11:33:34;;;;;;;6.38;2.75;;;7.60;92.60;;;;;;4994354;28;20117;-73
2023/11/13 11:36:00;;;;;;;6.07;2.95;;;7.70;92.10;;;;;;4991996;28;20034;-73
2023/11/13 11:38:26;;;;;;;4.32;2.20;;;8.00;92.40;;;;;;4984089;28;20106;-73
2023/11/13 11:40:53;;;;;;;5.18;2.55;;;7.80;91.70;;;;;;4992041;28;20031;-73
2023/11/13 11:43:23;;;;;;;6.13;2.67;;;7.70;92.20;;;;;;4983004;28;20026;-73
2023/11/13 11:45:51;;;;;;;6.97;2.83;;;7.80;92.30;;;;;;5003852;28;20066;-73
2023/11/13 11:48:18;;;;;;;4.65;2.35;;;8.00;92.50;;;;;;4992516;28;20526;-73
2023/11/13 11:50:45;;;;;;;4.63;2.40;;;8.10;92.20;;;;;;4985636;28;20125;-73
2023/11/13 11:53:16;;;;;;;4.05;2.10;;;8.30;91.20;;;;;;4987262;28;20019;-73
2023/11/13 11:55:42;;;;;;;;;;;8.50;91.70;;;;;;4986307;28;20023;-73
2023/11/13 11:58:10;;;;;;;3.55;1.90;;;8.20;90.40;;;;;;4993881;28;20282;-73
2023/11/13 12:00:36;;;;;;;3.33;2.10;;;8.20;90.80;;;;;;4987635;28;20038;-73
2023/11/13 12:03:01;;;;;;;3.30;2.13;;;8.20;91.20;;;;;;4990250;28;20088;-73
2023/11/13 12:05:29;;;;;;;4.10;2.42;;;8.10;91.10;;;;;;4986653;28;20037;-73
2023/11/13 12:07:55;;;;;;;4.30;2.30;;;8.20;91.30;;;;;;4976939;28;20035;-73
2023/11/13 12:10:21;;;;;;;2.92;1.55;;;8.10;91.40;;;;;;4988021;28;20069;-73
2023/11/13 12:12:48;;;;;;;4.93;2.00;;;8.00;91.20;;;;;;4983642;28;20027;-73
2023/11/13 12:15:13;;;;;;;3.80;1.95;;;8.00;91.50;;;;;;4987360;28;20034;-73
2023/11/13 12:17:40;;;;;;;4.40;1.85;;;8.10;91.80;;;;;;4986224;28;20073;-73
2023/11/13 12:20:09;;;;;;;3.33;1.90;;;8.00;91.90;;;;;;4985962;28;20121;-74
2023/11/13 12:22:35;;;;;;;3.42;1.60;;;8.00;92.10;;;;;;4981762;28;20494;-72
2023/11/13 12:25:05;;;;;;;3.40;1.98;;;7.80;91.80;;;;;;4990172;28;20057;-77
2023/11/13 12:27:31;;;;;;;3.42;1.73;;;7.80;92.30;;;;;;4983497;28;20047;-75
2023/11/13 12:30:00;;;;;;;4.18;2.20;;;7.60;92.90;;;;;;4984589;28;20038;-74
2023/11/13 12:32:29;;;;;;;4.40;2.20;;;7.50;93.20;;;;;;4983708;28;20515;-76
2023/11/13 12:34:57;;;;;;;3.55;1.85;;;7.50;93.70;;;;;;5010252;28;20030;-75
2023/11/13 12:37:24;;;;;;;4.45;2.15;;;7.40;94.00;;;;;;4984001;28;20388;-75
2023/11/13 12:39:50;;;;;;;4.53;2.20;;;7.30;94.60;;;;;;4988187;28;20490;-72
2023/11/13 12:42:16;;;;;;;3.67;1.95;;;7.20;95.10;;;;;;4989545;28;20030;-76
2023/11/13 12:44:42;;;;;;;4.93;2.35;;;7.10;95.40;;;;;;4990356;28;20034;-76
2023/11/13 12:47:09;;;;;;;4.45;2.05;;;7.00;95.90;;;;;;4985443;28;20089;-75
2023/11/13 12:49:35;;;;;;;4.20;1.83;;;7.00;96.40;;;;;;4986553;28;20122;-75
2023/11/13 12:52:03;;;;;;;2.80;1.83;;;7.00;96.40;;;;;;4983712;28;20106;-76